createdAt,value
2023-08-24T00:00:11.302Z,25.14
2023-08-24T00:00:43.313Z,25.13
2023-08-24T00:01:15.474Z,25.09
2023-08-24T00:01:47.402Z,25.10
2023-08-24T00:02:19.421Z,25.06
2023-08-24T00:02:51.385Z,25.05
2023-08-24T00:03:23.974Z,25.06
2023-08-24T00:03:55.957Z,25.04
2023-08-24T00:04:28.087Z,25.04
2023-08-24T00:04:59.990Z,25.04
2023-08-24T00:05:36.254Z,25.03
2023-08-24T00:06:08.236Z,25.04
2023-08-24T00:06:40.172Z,25.04
2023-08-24T00:07:13.002Z,25.05
2023-08-24T00:07:45.008Z,25.03
2023-08-24T00:08:16.982Z,25.04
2023-08-24T00:08:48.960Z,25.05
2023-08-24T00:09:21.055Z,25.03
2023-08-24T00:09:54.420Z,25.02
2023-08-24T00:10:27.085Z,25.00
2023-08-24T00:10:59.077Z,24.98
2023-08-24T00:11:31.713Z,24.98
2023-08-24T00:12:03.651Z,25.01
2023-08-24T00:12:36.943Z,25.00
2023-08-24T00:13:08.972Z,24.98
2023-08-24T00:13:40.949Z,24.95
2023-08-24T00:14:12.862Z,24.96
2023-08-24T00:14:44.786Z,24.98
2023-08-24T00:15:16.693Z,24.95
2023-08-24T00:15:48.714Z,24.94
2023-08-24T00:16:21.480Z,24.91
2023-08-24T00:16:53.515Z,24.90
2023-08-24T00:17:26.103Z,24.87
2023-08-24T00:17:58.275Z,24.91
2023-08-24T00:18:30.184Z,24.87
2023-08-24T00:19:02.478Z,24.90
2023-08-24T00:19:34.388Z,24.92
2023-08-24T00:20:12.145Z,24.86
2023-08-24T00:20:44.152Z,24.85
2023-08-24T00:21:18.305Z,24.85
2023-08-24T00:21:50.304Z,24.86
2023-08-24T00:22:22.263Z,24.83
2023-08-24T00:22:54.240Z,24.84
2023-08-24T00:23:26.812Z,24.82
2023-08-24T00:23:58.741Z,24.79
2023-08-24T00:24:30.782Z,24.79
2023-08-24T00:25:02.760Z,24.81
2023-08-24T00:25:34.684Z,24.80
2023-08-24T00:26:06.579Z,24.82
2023-08-24T00:26:38.550Z,24.78
2023-08-24T00:27:10.857Z,24.79
2023-08-24T00:27:42.798Z,24.80
2023-08-24T00:28:14.732Z,24.77
2023-08-24T00:28:46.879Z,24.79
2023-08-24T00:29:18.844Z,24.80
2023-08-24T00:29:50.745Z,24.78
2023-08-24T00:30:22.810Z,24.74
2023-08-24T00:30:54.709Z,24.71
2023-08-24T00:31:26.653Z,24.72
2023-08-24T00:31:58.759Z,24.69
2023-08-24T00:32:30.698Z,24.70
2023-08-24T00:33:02.787Z,24.73
2023-08-24T00:33:34.776Z,24.73
2023-08-24T00:34:06.714Z,24.70
2023-08-24T00:34:38.680Z,24.70
2023-08-24T00:35:11.785Z,24.66
2023-08-24T00:35:43.749Z,24.65
2023-08-24T00:36:16.393Z,24.66
2023-08-24T00:36:48.348Z,24.66
2023-08-24T00:37:20.272Z,24.63
2023-08-24T00:37:52.575Z,24.63
2023-08-24T00:38:24.760Z,24.62
2023-08-24T00:38:56.658Z,24.66
2023-08-24T00:39:28.572Z,24.65
2023-08-24T00:40:11.308Z,24.61
2023-08-24T00:40:44.962Z,24.62
2023-08-24T00:41:16.914Z,24.61
2023-08-24T00:41:48.815Z,24.62
2023-08-24T00:42:20.827Z,24.64
2023-08-24T00:42:52.733Z,24.64
2023-08-24T00:43:25.465Z,24.64
2023-08-24T00:43:57.441Z,24.63
2023-08-24T00:44:29.364Z,24.59
2023-08-24T00:45:01.282Z,24.60
2023-08-24T00:45:34.564Z,24.59
2023-08-24T00:46:06.669Z,24.63
2023-08-24T00:46:38.608Z,24.65
2023-08-24T00:47:10.560Z,24.66
2023-08-24T00:47:46.406Z,24.64
2023-08-24T00:48:19.547Z,24.61
2023-08-24T00:48:53.015Z,24.60
2023-08-24T00:49:24.949Z,24.62
2023-08-24T00:49:57.308Z,24.60
2023-08-24T00:50:29.414Z,24.59
2023-08-24T00:51:02.587Z,24.57
2023-08-24T00:51:35.801Z,24.56
2023-08-24T00:52:07.952Z,24.56
2023-08-24T00:52:41.996Z,24.50
2023-08-24T00:53:14.185Z,24.51
2023-08-24T00:53:47.097Z,24.51
2023-08-24T00:54:19.876Z,24.54
2023-08-24T00:54:51.806Z,24.54
2023-08-24T00:55:23.833Z,24.54
2023-08-24T00:55:55.920Z,24.53
2023-08-24T00:56:28.145Z,24.49
2023-08-24T00:57:00.071Z,24.48
2023-08-24T00:57:33.300Z,24.47
2023-08-24T00:58:05.425Z,24.47
2023-08-24T00:58:37.347Z,24.48
2023-08-24T00:59:09.293Z,24.49
2023-08-24T00:59:41.323Z,24.49
2023-08-24T01:00:13.469Z,24.50
2023-08-24T01:00:45.452Z,24.54
2023-08-24T01:01:19.061Z,24.54
2023-08-24T01:01:52.346Z,24.48
2023-08-24T01:02:24.342Z,24.45
2023-08-24T01:02:56.593Z,24.46
2023-08-24T01:03:28.598Z,24.46
2023-08-24T01:04:00.811Z,24.45
2023-08-24T01:04:32.706Z,24.45
2023-08-24T01:05:07.849Z,24.47
2023-08-24T01:05:39.859Z,24.47
2023-08-24T01:06:11.765Z,24.48
2023-08-24T01:06:43.755Z,24.47
2023-08-24T01:07:17.229Z,24.48
2023-08-24T01:07:49.731Z,24.47
2023-08-24T01:08:23.052Z,24.42
2023-08-24T01:08:55.455Z,24.42
2023-08-24T01:09:27.360Z,24.36
2023-08-24T01:09:59.470Z,24.38
2023-08-24T01:10:43.001Z,24.37
2023-08-24T01:11:23.611Z,24.36
2023-08-24T01:12:19.006Z,24.37
2023-08-24T01:12:50.946Z,24.35
2023-08-24T01:13:36.185Z,24.33
2023-08-24T01:14:41.627Z,24.33
2023-08-24T01:15:37.652Z,24.31
2023-08-24T01:16:20.789Z,24.31
2023-08-24T01:16:58.157Z,24.30
2023-08-24T01:17:31.885Z,24.31
2023-08-24T01:18:08.646Z,24.28
2023-08-24T01:18:40.696Z,24.26
2023-08-24T01:19:28.978Z,24.24
2023-08-24T01:20:00.992Z,24.23
2023-08-24T01:20:35.193Z,24.25
2023-08-24T01:21:07.323Z,24.20
2023-08-24T01:21:39.608Z,24.18
2023-08-24T01:22:34.111Z,24.21
2023-08-24T01:23:10.395Z,24.22
2023-08-24T01:23:55.554Z,24.20
2023-08-24T01:24:54.932Z,24.20
2023-08-24T01:25:54.450Z,24.19
2023-08-24T01:26:27.513Z,24.21
2023-08-24T01:27:00.412Z,24.17
2023-08-24T01:27:36.028Z,24.15
2023-08-24T01:28:09.603Z,24.12
2023-08-24T01:28:43.699Z,24.12
2023-08-24T01:29:16.730Z,24.10
2023-08-24T01:29:48.958Z,24.10
2023-08-24T01:30:21.199Z,24.06
2023-08-24T01:30:53.523Z,24.13
2023-08-24T01:31:26.150Z,24.12
2023-08-24T01:31:58.432Z,24.10
2023-08-24T01:32:33.041Z,24.06
2023-08-24T01:33:13.139Z,24.08
2023-08-24T01:33:46.114Z,24.13
2023-08-24T01:34:18.087Z,24.11
2023-08-24T01:34:50.227Z,24.14
2023-08-24T01:35:22.158Z,24.16
2023-08-24T01:35:54.091Z,24.15
2023-08-24T01:36:26.499Z,24.15
2023-08-24T01:36:58.551Z,24.15
2023-08-24T01:37:31.957Z,24.13
2023-08-24T01:38:05.088Z,24.12
2023-08-24T01:38:37.117Z,24.14
2023-08-24T01:39:16.319Z,24.11
2023-08-24T01:39:58.058Z,24.08
2023-08-24T01:40:41.485Z,24.07
2023-08-24T01:41:18.610Z,24.06
2023-08-24T01:41:54.422Z,24.03
2023-08-24T01:42:28.782Z,24.06
2023-08-24T01:43:05.128Z,24.05
2023-08-24T01:43:44.001Z,24.07
2023-08-24T01:44:19.850Z,24.07
2023-08-24T01:44:53.786Z,24.10
2023-08-24T01:45:31.275Z,24.11
2023-08-24T01:46:06.889Z,24.07
2023-08-24T01:46:39.297Z,24.07
2023-08-24T01:47:12.984Z,24.12
2023-08-24T01:47:45.527Z,24.07
2023-08-24T01:48:17.578Z,24.06
2023-08-24T01:48:50.138Z,24.03
2023-08-24T01:49:23.176Z,24.06
2023-08-24T01:49:55.735Z,24.05
2023-08-24T01:50:27.808Z,24.05
2023-08-24T01:51:01.284Z,24.02
2023-08-24T01:51:34.984Z,24.03
2023-08-24T01:52:07.127Z,24.04
2023-08-24T01:52:39.137Z,24.04
2023-08-24T01:53:11.221Z,24.04
2023-08-24T01:53:44.092Z,24.01
2023-08-24T01:54:16.020Z,23.99
2023-08-24T01:54:49.391Z,24.01
2023-08-24T01:55:21.702Z,24.04
2023-08-24T01:55:54.561Z,24.02
2023-08-24T01:56:26.570Z,24.02
2023-08-24T01:56:58.543Z,24.03
2023-08-24T01:57:30.568Z,24.06
2023-08-24T01:58:02.539Z,24.08
2023-08-24T01:58:34.481Z,24.07
2023-08-24T01:59:06.431Z,24.09
2023-08-24T01:59:38.409Z,24.10
2023-08-24T02:00:10.933Z,24.09
2023-08-24T02:00:42.948Z,24.05
2023-08-24T02:01:15.016Z,24.08
2023-08-24T02:01:47.016Z,24.06
2023-08-24T02:02:18.945Z,24.05
2023-08-24T02:02:51.031Z,24.09
2023-08-24T02:03:23.146Z,24.06
2023-08-24T02:03:55.186Z,24.08
2023-08-24T02:04:27.146Z,24.08
2023-08-24T02:04:59.048Z,24.05
2023-08-24T02:05:31.010Z,24.07
2023-08-24T02:06:03.068Z,24.09
2023-08-24T02:06:34.984Z,24.04
2023-08-24T02:07:06.888Z,24.07
2023-08-24T02:07:40.340Z,24.09
2023-08-24T02:08:12.279Z,24.13
2023-08-24T02:08:45.978Z,24.09
2023-08-24T02:09:17.910Z,24.09
2023-08-24T02:09:49.819Z,24.11
2023-08-24T02:10:21.800Z,24.07
2023-08-24T02:10:53.719Z,24.07
2023-08-24T02:11:25.692Z,24.05
2023-08-24T02:11:57.598Z,24.10
2023-08-24T02:12:29.513Z,24.06
2023-08-24T02:13:01.429Z,24.09
2023-08-24T02:13:33.494Z,24.10
2023-08-24T02:14:05.631Z,24.06
2023-08-24T02:14:37.565Z,24.05
2023-08-24T02:15:09.882Z,24.08
2023-08-24T02:15:41.798Z,24.06
2023-08-24T02:16:14.234Z,24.04
2023-08-24T02:16:46.801Z,24.08
2023-08-24T02:17:18.745Z,24.06
2023-08-24T02:17:50.773Z,24.07
2023-08-24T02:18:22.764Z,24.13
2023-08-24T02:18:54.675Z,24.10
2023-08-24T02:19:26.643Z,24.09
2023-08-24T02:19:58.753Z,24.06
2023-08-24T02:20:30.659Z,24.07
2023-08-24T02:21:09.903Z,24.03
2023-08-24T02:21:41.929Z,24.04
2023-08-24T02:22:13.876Z,24.11
2023-08-24T02:22:45.771Z,24.09
2023-08-24T02:23:17.683Z,24.11
2023-08-24T02:23:49.591Z,24.09
2023-08-24T02:24:21.490Z,24.08
2023-08-24T02:24:53.815Z,24.08
2023-08-24T02:25:25.741Z,24.10
2023-08-24T02:25:58.030Z,24.10
2023-08-24T02:26:29.930Z,24.07
2023-08-24T02:27:02.142Z,24.05
2023-08-24T02:27:34.501Z,24.07
2023-08-24T02:28:06.519Z,24.06
2023-08-24T02:28:38.977Z,24.05
2023-08-24T02:29:11.142Z,24.03
2023-08-24T02:29:43.060Z,24.06
2023-08-24T02:30:15.045Z,24.00
2023-08-24T02:30:46.954Z,23.99
2023-08-24T02:31:18.888Z,23.96
2023-08-24T02:31:51.961Z,23.96
2023-08-24T02:32:23.963Z,23.99
2023-08-24T02:32:55.915Z,23.99
2023-08-24T02:33:27.845Z,24.00
2023-08-24T02:33:59.812Z,23.95
2023-08-24T02:34:32.610Z,23.97
2023-08-24T02:35:04.962Z,23.96
2023-08-24T02:35:36.948Z,23.98
2023-08-24T02:36:08.870Z,23.96
2023-08-24T02:36:40.816Z,23.92
2023-08-24T02:37:12.739Z,23.90
2023-08-24T02:37:44.643Z,23.94
2023-08-24T02:38:16.592Z,23.88
2023-08-24T02:38:48.523Z,23.91
2023-08-24T02:39:20.447Z,23.91
2023-08-24T02:39:52.407Z,23.84
2023-08-24T02:40:24.608Z,23.83
2023-08-24T02:41:07.561Z,23.83
2023-08-24T02:41:39.519Z,23.83
2023-08-24T02:42:11.440Z,23.83
2023-08-24T02:42:43.342Z,23.81
2023-08-24T02:43:15.247Z,23.82
2023-08-24T02:43:47.743Z,23.82
2023-08-24T02:44:19.828Z,23.82
2023-08-24T02:44:51.800Z,23.81
2023-08-24T02:45:23.862Z,23.80
2023-08-24T02:45:55.828Z,23.75
2023-08-24T02:46:27.857Z,23.77
2023-08-24T02:46:59.815Z,23.76
2023-08-24T02:47:32.049Z,23.74
2023-08-24T02:48:04.533Z,23.72
2023-08-24T02:48:36.917Z,23.72
2023-08-24T02:49:08.998Z,23.71
2023-08-24T02:49:40.996Z,23.74
2023-08-24T02:50:12.915Z,23.75
2023-08-24T02:50:48.794Z,23.74
2023-08-24T02:51:22.894Z,23.74
2023-08-24T02:51:54.814Z,23.71
2023-08-24T02:52:26.944Z,23.72
2023-08-24T02:53:02.940Z,23.73
2023-08-24T02:53:35.028Z,23.72
2023-08-24T02:54:06.959Z,23.71
2023-08-24T02:54:38.873Z,23.72
2023-08-24T02:55:11.335Z,23.75
2023-08-24T02:55:43.275Z,23.72
2023-08-24T02:56:15.265Z,23.73
2023-08-24T02:56:47.171Z,23.73
2023-08-24T02:57:19.120Z,23.71
2023-08-24T02:57:51.255Z,23.70
2023-08-24T02:58:23.749Z,23.74
2023-08-24T02:58:55.736Z,23.72
2023-08-24T02:59:27.654Z,23.72
2023-08-24T02:59:59.589Z,23.68
2023-08-24T03:00:31.507Z,23.70
2023-08-24T03:01:09.987Z,23.67
2023-08-24T03:01:42.205Z,23.68
2023-08-24T03:02:14.395Z,23.69
2023-08-24T03:02:46.360Z,23.72
2023-08-24T03:03:18.604Z,23.70
2023-08-24T03:03:50.832Z,23.70
2023-08-24T03:04:23.163Z,23.65
2023-08-24T03:04:56.652Z,23.67
2023-08-24T03:05:28.602Z,23.66
2023-08-24T03:06:05.631Z,23.62
2023-08-24T03:06:37.559Z,23.60
2023-08-24T03:07:11.606Z,23.64
2023-08-24T03:07:43.540Z,23.62
2023-08-24T03:08:15.453Z,23.61
2023-08-24T03:08:47.379Z,23.59
2023-08-24T03:09:19.342Z,23.60
2023-08-24T03:09:51.260Z,23.58
2023-08-24T03:10:23.211Z,23.56
2023-08-24T03:10:55.213Z,23.58
2023-08-24T03:11:27.119Z,23.59
2023-08-24T03:11:59.037Z,23.63
2023-08-24T03:12:31.006Z,23.59
2023-08-24T03:13:04.094Z,23.54
2023-08-24T03:13:39.495Z,23.54
2023-08-24T03:14:11.514Z,23.55
2023-08-24T03:14:43.560Z,23.54
2023-08-24T03:15:15.465Z,23.54
2023-08-24T03:15:47.402Z,23.55
2023-08-24T03:16:19.426Z,23.53
2023-08-24T03:16:51.646Z,23.51
2023-08-24T03:17:24.242Z,23.53
2023-08-24T03:17:56.193Z,23.51
2023-08-24T03:18:28.098Z,23.52
2023-08-24T03:19:00.022Z,23.51
2023-08-24T03:19:32.162Z,23.47
2023-08-24T03:20:04.954Z,23.47
2023-08-24T03:20:36.880Z,23.48
2023-08-24T03:21:08.854Z,23.48
2023-08-24T03:21:40.781Z,23.50
2023-08-24T03:22:12.700Z,23.50
2023-08-24T03:22:44.620Z,23.47
2023-08-24T03:23:17.211Z,23.46
2023-08-24T03:23:49.139Z,23.48
2023-08-24T03:24:21.040Z,23.50
2023-08-24T03:24:52.934Z,23.48
2023-08-24T03:25:24.992Z,23.49
2023-08-24T03:25:57.593Z,23.47
2023-08-24T03:26:29.569Z,23.49
2023-08-24T03:27:01.475Z,23.48
2023-08-24T03:27:33.592Z,23.48
2023-08-24T03:28:06.114Z,23.48
2023-08-24T03:28:38.247Z,23.46
2023-08-24T03:29:10.153Z,23.44
2023-08-24T03:29:42.063Z,23.44
2023-08-24T03:30:14.663Z,23.40
2023-08-24T03:30:55.480Z,23.41
2023-08-24T03:31:27.591Z,23.40
2023-08-24T03:31:59.538Z,23.44
2023-08-24T03:32:31.491Z,23.46
2023-08-24T03:33:04.033Z,23.43
2023-08-24T03:33:36.001Z,23.43
2023-08-24T03:34:07.964Z,23.42
2023-08-24T03:34:41.354Z,23.43
2023-08-24T03:35:13.278Z,23.43
2023-08-24T03:35:45.307Z,23.43
2023-08-24T03:36:17.218Z,23.43
2023-08-24T03:36:49.352Z,23.42
2023-08-24T03:37:21.332Z,23.39
2023-08-24T03:37:53.351Z,23.40
2023-08-24T03:38:25.297Z,23.40
2023-08-24T03:38:57.212Z,23.37
2023-08-24T03:39:29.142Z,23.39
2023-08-24T03:40:01.066Z,23.39
2023-08-24T03:40:33.027Z,23.39
2023-08-24T03:41:05.297Z,23.39
2023-08-24T03:41:37.216Z,23.37
2023-08-24T03:42:09.189Z,23.34
2023-08-24T03:42:41.096Z,23.36
2023-08-24T03:43:13.121Z,23.34
2023-08-24T03:43:45.061Z,23.32
2023-08-24T03:44:16.980Z,23.32
2023-08-24T03:44:49.083Z,23.32
2023-08-24T03:45:21.655Z,23.35
2023-08-24T03:45:53.622Z,23.31
2023-08-24T03:46:25.855Z,23.35
2023-08-24T03:46:57.966Z,23.30
2023-08-24T03:47:29.995Z,23.29
2023-08-24T03:48:01.968Z,23.26
2023-08-24T03:48:34.247Z,23.29
2023-08-24T03:49:06.179Z,23.28
2023-08-24T03:49:38.881Z,23.31
2023-08-24T03:50:10.805Z,23.26
2023-08-24T03:50:42.907Z,23.27
2023-08-24T03:51:14.821Z,23.29
2023-08-24T03:51:46.805Z,23.27
2023-08-24T03:52:18.710Z,23.24
2023-08-24T03:52:55.540Z,23.26
2023-08-24T03:53:27.461Z,23.21
2023-08-24T03:53:59.395Z,23.22
2023-08-24T03:54:31.383Z,23.19
2023-08-24T03:55:03.447Z,23.20
2023-08-24T03:55:35.629Z,23.18
2023-08-24T03:56:07.557Z,23.16
2023-08-24T03:56:40.960Z,23.18
2023-08-24T03:57:12.875Z,23.18
2023-08-24T03:57:44.787Z,23.16
2023-08-24T03:58:17.158Z,23.15
2023-08-24T03:58:49.060Z,23.12
2023-08-24T03:59:21.521Z,23.11
2023-08-24T03:59:53.437Z,23.14
2023-08-24T04:00:25.656Z,23.16
2023-08-24T04:00:57.596Z,23.14
2023-08-24T04:01:29.556Z,23.17
2023-08-24T04:02:04.217Z,23.16
2023-08-24T04:02:36.212Z,23.13
2023-08-24T04:03:08.357Z,23.13
2023-08-24T04:03:40.708Z,23.13
2023-08-24T04:04:12.660Z,23.11
2023-08-24T04:04:44.883Z,23.11
2023-08-24T04:05:16.836Z,23.09
2023-08-24T04:05:48.812Z,23.08
2023-08-24T04:06:21.652Z,23.08
2023-08-24T04:06:53.814Z,23.10
2023-08-24T04:07:25.734Z,23.06
2023-08-24T04:07:57.652Z,23.08
2023-08-24T04:08:29.615Z,23.07
2023-08-24T04:09:01.558Z,23.05
2023-08-24T04:09:34.203Z,23.04
2023-08-24T04:10:06.852Z,23.06
2023-08-24T04:10:38.952Z,23.07
2023-08-24T04:11:10.878Z,23.10
2023-08-24T04:11:42.775Z,23.14
2023-08-24T04:12:14.680Z,23.09
2023-08-24T04:12:46.608Z,23.09
2023-08-24T04:13:18.534Z,23.07
2023-08-24T04:13:50.499Z,23.10
2023-08-24T04:14:22.409Z,23.10
2023-08-24T04:14:54.329Z,23.10
2023-08-24T04:15:26.292Z,23.08
2023-08-24T04:15:58.238Z,23.06
2023-08-24T04:16:30.169Z,23.07
2023-08-24T04:17:02.072Z,23.07
2023-08-24T04:17:34.044Z,23.07
2023-08-24T04:18:06.093Z,23.04
2023-08-24T04:18:38.088Z,23.05
2023-08-24T04:19:10.263Z,23.05
2023-08-24T04:19:42.327Z,23.07
2023-08-24T04:20:14.304Z,23.07
2023-08-24T04:20:46.212Z,23.06
2023-08-24T04:21:18.113Z,23.05
2023-08-24T04:21:50.049Z,23.05
2023-08-24T04:22:21.988Z,23.04
2023-08-24T04:22:53.928Z,23.07
2023-08-24T04:23:29.496Z,23.07
2023-08-24T04:24:01.419Z,23.09
2023-08-24T04:24:33.398Z,23.05
2023-08-24T04:25:05.764Z,23.07
2023-08-24T04:25:41.226Z,23.04
2023-08-24T04:26:14.256Z,23.01
2023-08-24T04:26:46.337Z,23.02
2023-08-24T04:27:18.341Z,23.05
2023-08-24T04:27:50.990Z,23.08
2023-08-24T04:28:23.083Z,23.08
2023-08-24T04:28:55.010Z,23.08
2023-08-24T04:29:26.943Z,23.05
2023-08-24T04:29:58.911Z,23.02
2023-08-24T04:30:30.868Z,23.00
2023-08-24T04:31:02.812Z,23.00
2023-08-24T04:31:34.742Z,23.00
2023-08-24T04:32:07.535Z,23.00
2023-08-24T04:32:39.541Z,23.02
2023-08-24T04:33:11.542Z,23.05
2023-08-24T04:33:43.560Z,23.02
2023-08-24T04:34:15.529Z,23.02
2023-08-24T04:34:47.600Z,23.01
2023-08-24T04:35:19.676Z,23.00
2023-08-24T04:35:52.069Z,23.03
2023-08-24T04:36:24.045Z,23.02
2023-08-24T04:36:56.624Z,23.04
2023-08-24T04:37:28.591Z,23.02
2023-08-24T04:38:00.502Z,23.04
2023-08-24T04:38:32.433Z,23.04
2023-08-24T04:39:04.393Z,23.03
2023-08-24T04:39:36.533Z,23.02
2023-08-24T04:40:08.721Z,23.01
2023-08-24T04:40:51.254Z,23.03
2023-08-24T04:41:23.160Z,23.06
2023-08-24T04:41:55.107Z,23.06
2023-08-24T04:42:27.018Z,23.07
2023-08-24T04:42:58.979Z,23.10
2023-08-24T04:43:30.944Z,23.12
2023-08-24T04:44:02.859Z,23.13
2023-08-24T04:44:35.165Z,23.14
2023-08-24T04:45:07.611Z,23.11
2023-08-24T04:45:39.531Z,23.09
2023-08-24T04:46:11.478Z,23.14
2023-08-24T04:46:43.454Z,23.11
2023-08-24T04:47:15.435Z,23.14
2023-08-24T04:47:47.414Z,23.16
2023-08-24T04:48:23.524Z,23.19
2023-08-24T04:48:55.453Z,23.16
2023-08-24T04:49:27.408Z,23.13
2023-08-24T04:49:59.376Z,23.15
2023-08-24T04:50:31.349Z,23.11
2023-08-24T04:51:03.904Z,23.15
2023-08-24T04:51:35.852Z,23.16
2023-08-24T04:52:07.783Z,23.20
2023-08-24T04:52:39.699Z,23.23
2023-08-24T04:53:15.609Z,23.22
2023-08-24T04:53:47.516Z,23.24
2023-08-24T04:54:19.662Z,23.23
2023-08-24T04:54:51.593Z,23.25
2023-08-24T04:55:24.148Z,23.26
2023-08-24T04:55:57.276Z,23.27
2023-08-24T04:56:29.188Z,23.26
2023-08-24T04:57:01.159Z,23.29
2023-08-24T04:57:33.069Z,23.30
2023-08-24T04:58:04.973Z,23.29
2023-08-24T04:58:36.869Z,23.32
2023-08-24T04:59:09.081Z,23.35
2023-08-24T04:59:41.078Z,23.35
2023-08-24T05:00:17.199Z,23.38
2023-08-24T05:00:50.148Z,23.40
2023-08-24T05:01:22.130Z,23.42
2023-08-24T05:01:54.054Z,23.41
2023-08-24T05:02:26.057Z,23.39
2023-08-24T05:02:58.054Z,23.39
2023-08-24T05:03:29.964Z,23.41
2023-08-24T05:04:02.011Z,23.42
2023-08-24T05:04:33.931Z,23.43
2023-08-24T05:05:06.299Z,23.48
2023-08-24T05:05:38.861Z,23.43
2023-08-24T05:06:10.779Z,23.45
2023-08-24T05:06:42.827Z,23.45
2023-08-24T05:07:14.741Z,23.49
2023-08-24T05:07:46.668Z,23.52
2023-08-24T05:08:18.586Z,23.52
2023-08-24T05:08:50.724Z,23.55
2023-08-24T05:09:24.005Z,23.54
2023-08-24T05:09:55.947Z,23.55
2023-08-24T05:10:31.853Z,23.56
2023-08-24T05:11:15.011Z,23.58
2023-08-24T05:11:46.910Z,23.61
2023-08-24T05:12:18.825Z,23.63
2023-08-24T05:12:50.747Z,23.62
2023-08-24T05:13:23.865Z,23.63
2023-08-24T05:13:56.522Z,23.64
2023-08-24T05:14:28.469Z,23.67
2023-08-24T05:15:00.598Z,23.70
2023-08-24T05:15:32.530Z,23.70
2023-08-24T05:16:04.644Z,23.70
2023-08-24T05:16:36.699Z,23.71
2023-08-24T05:17:08.675Z,23.71
2023-08-24T05:17:41.361Z,23.73
2023-08-24T05:18:13.330Z,23.73
2023-08-24T05:18:45.512Z,23.73
2023-08-24T05:19:17.471Z,23.72
2023-08-24T05:19:53.541Z,23.73
2023-08-24T05:20:25.476Z,23.72
2023-08-24T05:20:57.383Z,23.72
2023-08-24T05:21:29.291Z,23.74
2023-08-24T05:22:01.326Z,23.73
2023-08-24T05:22:33.309Z,23.72
2023-08-24T05:23:05.220Z,23.73
2023-08-24T05:23:37.149Z,23.73
2023-08-24T05:24:09.069Z,23.80
2023-08-24T05:24:41.102Z,23.79
2023-08-24T05:25:13.232Z,23.81
2023-08-24T05:25:46.278Z,23.81
2023-08-24T05:26:23.865Z,23.81
2023-08-24T05:26:55.827Z,23.79
2023-08-24T05:27:27.804Z,23.80
2023-08-24T05:27:59.765Z,23.83
2023-08-24T05:28:33.024Z,23.86
2023-08-24T05:29:04.933Z,23.86
2023-08-24T05:29:36.907Z,23.85
2023-08-24T05:30:09.254Z,23.86
2023-08-24T05:30:41.304Z,23.90
2023-08-24T05:31:13.334Z,23.94
2023-08-24T05:31:45.323Z,23.94
2023-08-24T05:32:17.243Z,23.93
2023-08-24T05:32:49.199Z,23.88
2023-08-24T05:33:21.605Z,23.90
2023-08-24T05:33:53.514Z,23.94
2023-08-24T05:34:25.513Z,23.96
2023-08-24T05:34:57.557Z,23.95
2023-08-24T05:35:29.682Z,23.98
2023-08-24T05:36:01.910Z,24.00
2023-08-24T05:36:33.815Z,24.01
2023-08-24T05:37:05.727Z,24.02
2023-08-24T05:37:37.711Z,24.02
2023-08-24T05:38:09.689Z,24.06
2023-08-24T05:38:59.513Z,24.08
2023-08-24T05:39:35.923Z,24.05
2023-08-24T05:40:08.304Z,24.07
2023-08-24T05:40:40.328Z,24.08
2023-08-24T05:41:12.603Z,24.02
2023-08-24T05:41:44.553Z,24.04
2023-08-24T05:42:16.492Z,24.07
2023-08-24T05:42:48.452Z,24.12
2023-08-24T05:43:21.161Z,24.15
2023-08-24T05:43:54.137Z,24.15
2023-08-24T05:44:26.038Z,24.11
2023-08-24T05:44:57.968Z,24.14
2023-08-24T05:45:29.930Z,24.13
2023-08-24T05:46:02.666Z,24.19
2023-08-24T05:46:34.748Z,24.22
2023-08-24T05:47:06.784Z,24.23
2023-08-24T05:47:38.840Z,24.19
2023-08-24T05:48:11.114Z,24.18
2023-08-24T05:48:43.078Z,24.19
2023-08-24T05:49:15.019Z,24.21
2023-08-24T05:49:47.061Z,24.25
2023-08-24T05:50:19.039Z,24.26
2023-08-24T05:50:50.958Z,24.28
2023-08-24T05:51:22.848Z,24.30
2023-08-24T05:51:54.772Z,24.28
2023-08-24T05:52:26.704Z,24.31
2023-08-24T05:52:58.677Z,24.36
2023-08-24T05:53:30.590Z,24.36
2023-08-24T05:54:02.527Z,24.36
2023-08-24T05:54:34.535Z,24.40
2023-08-24T05:55:06.912Z,24.44
2023-08-24T05:55:39.414Z,24.43
2023-08-24T05:56:11.339Z,24.45
2023-08-24T05:56:43.299Z,24.46
2023-08-24T05:57:15.255Z,24.48
2023-08-24T05:57:47.674Z,24.50
2023-08-24T05:58:19.701Z,24.49
2023-08-24T05:58:52.201Z,24.49
2023-08-24T05:59:24.553Z,24.52
2023-08-24T05:59:56.467Z,24.52
2023-08-24T06:00:28.508Z,24.56
2023-08-24T06:01:00.534Z,24.60
2023-08-24T06:01:32.517Z,24.60
2023-08-24T06:02:04.617Z,24.63
2023-08-24T06:02:40.312Z,24.63
2023-08-24T06:03:12.248Z,24.64
2023-08-24T06:03:44.791Z,24.65
2023-08-24T06:04:16.841Z,24.67
2023-08-24T06:04:48.769Z,24.70
2023-08-24T06:05:20.712Z,24.73
2023-08-24T06:05:53.033Z,24.74
2023-08-24T06:06:24.972Z,24.77
2023-08-24T06:06:56.907Z,24.78
2023-08-24T06:07:28.928Z,24.80
2023-08-24T06:08:02.595Z,24.83
2023-08-24T06:08:34.628Z,24.85
2023-08-24T06:09:08.763Z,24.89
2023-08-24T06:09:42.273Z,24.86
2023-08-24T06:10:14.225Z,24.86
2023-08-24T06:10:46.162Z,24.88
2023-08-24T06:11:18.086Z,24.90
2023-08-24T06:11:50.017Z,24.93
2023-08-24T06:12:21.976Z,24.94
2023-08-24T06:12:54.172Z,24.98
2023-08-24T06:13:26.134Z,24.94
2023-08-24T06:13:58.039Z,24.89
2023-08-24T06:14:29.976Z,24.88
2023-08-24T06:15:05.012Z,24.89
2023-08-24T06:15:36.928Z,24.94
2023-08-24T06:16:08.972Z,24.99
2023-08-24T06:16:41.012Z,25.00
2023-08-24T06:17:12.944Z,25.03
2023-08-24T06:17:44.893Z,25.04
2023-08-24T06:18:17.418Z,25.05
2023-08-24T06:18:50.972Z,25.05
2023-08-24T06:19:23.173Z,25.08
2023-08-24T06:19:55.155Z,25.11
2023-08-24T06:20:27.097Z,25.13
2023-08-24T06:20:59.021Z,25.15
2023-08-24T06:21:30.951Z,25.16
2023-08-24T06:22:02.926Z,25.19
2023-08-24T06:22:34.835Z,25.22
2023-08-24T06:23:08.810Z,25.24
2023-08-24T06:23:40.765Z,25.22
2023-08-24T06:24:14.272Z,25.26
2023-08-24T06:24:46.255Z,25.26
2023-08-24T06:25:18.263Z,25.27
2023-08-24T06:25:50.513Z,25.28
2023-08-24T06:26:22.627Z,25.30
2023-08-24T06:26:54.540Z,25.29
2023-08-24T06:27:26.709Z,25.32
2023-08-24T06:28:00.151Z,25.35
2023-08-24T06:28:32.386Z,25.36
2023-08-24T06:29:04.716Z,25.41
2023-08-24T06:29:37.843Z,25.41
2023-08-24T06:30:10.201Z,25.43
2023-08-24T06:30:44.625Z,25.45
2023-08-24T06:31:17.552Z,25.50
2023-08-24T06:31:49.552Z,25.53
2023-08-24T06:32:21.513Z,25.55
2023-08-24T06:32:53.473Z,25.55
2023-08-24T06:33:32.121Z,25.60
2023-08-24T06:34:04.039Z,25.58
2023-08-24T06:34:36.063Z,25.59
2023-08-24T06:35:08.228Z,25.61
2023-08-24T06:35:41.705Z,25.62
2023-08-24T06:36:13.614Z,25.63
2023-08-24T06:36:45.567Z,25.63
2023-08-24T06:37:17.471Z,25.62
2023-08-24T06:37:49.848Z,25.65
2023-08-24T06:38:22.071Z,25.68
2023-08-24T06:38:54.005Z,25.68
2023-08-24T06:39:26.160Z,25.69
2023-08-24T06:39:58.074Z,25.71
2023-08-24T06:40:30.274Z,25.76
2023-08-24T06:41:02.228Z,25.80
2023-08-24T06:41:37.241Z,25.83
2023-08-24T06:42:09.177Z,25.88
2023-08-24T06:42:41.138Z,25.86
2023-08-24T06:43:13.087Z,25.87
2023-08-24T06:43:45.126Z,25.91
2023-08-24T06:44:17.040Z,25.96
2023-08-24T06:44:51.309Z,26.00
2023-08-24T06:45:23.464Z,26.01
2023-08-24T06:45:58.664Z,26.01
2023-08-24T06:46:30.846Z,26.05
2023-08-24T06:47:05.585Z,26.03
2023-08-24T06:47:38.041Z,26.09
2023-08-24T06:48:10.062Z,26.11
2023-08-24T06:48:44.460Z,26.09
2023-08-24T06:49:16.361Z,26.12
2023-08-24T06:49:48.262Z,26.16
2023-08-24T06:50:22.990Z,26.20
2023-08-24T06:50:55.012Z,26.16
2023-08-24T06:51:27.829Z,26.21
2023-08-24T06:51:59.736Z,26.24
2023-08-24T06:52:31.661Z,26.27
2023-08-24T06:53:04.710Z,26.28
2023-08-24T06:53:36.617Z,26.30
2023-08-24T06:54:08.582Z,26.31
2023-08-24T06:54:40.645Z,26.36
2023-08-24T06:55:13.230Z,26.37
2023-08-24T06:55:45.138Z,26.37
2023-08-24T06:56:18.773Z,26.37
2023-08-24T06:56:50.681Z,26.40
2023-08-24T06:57:23.209Z,26.45
2023-08-24T06:57:55.162Z,26.44
2023-08-24T06:58:27.129Z,26.42
2023-08-24T06:58:59.056Z,26.45
2023-08-24T06:59:31.033Z,26.47
2023-08-24T07:00:08.028Z,26.52
2023-08-24T07:00:40.909Z,26.47
2023-08-24T07:01:13.060Z,26.45
2023-08-24T07:01:45.121Z,26.46
2023-08-24T07:02:18.947Z,26.45
2023-08-24T07:02:51.592Z,26.41